createdAt,value
2023-05-22T00:02:14.400Z,3.0199999999999996
2023-05-22T00:05:12.009Z,3.4
2023-05-22T00:08:11.528Z,2.98
2023-05-22T00:11:07.053Z,2.94
2023-05-22T00:14:03.654Z,2.8200000000000003
2023-05-22T00:17:00.308Z,3.6
2023-05-22T00:19:55.759Z,3.2400000000000007
2023-05-22T00:22:51.334Z,2.6799999999999997
2023-05-22T00:25:50.870Z,3.0599999999999996
2023-05-22T00:28:46.426Z,2.7800000000000002
2023-05-22T00:31:41.990Z,3.3
2023-05-22T00:34:37.615Z,2.98
2023-05-22T00:37:33.123Z,2.7600000000000007
2023-05-22T00:40:28.704Z,2.82
2023-05-22T00:43:24.260Z,3.28
2023-05-22T00:46:20.880Z,3.16
2023-05-22T00:49:16.352Z,3.2800000000000002
2023-05-22T00:52:12.930Z,2.8
2023-05-22T00:55:09.474Z,3.5200000000000005
2023-05-22T00:58:07.040Z,3.12
2023-05-22T01:01:07.649Z,2.6
2023-05-22T01:04:05.243Z,3.5799999999999996
2023-05-22T01:07:05.693Z,3.1800000000000006
2023-05-22T01:10:01.285Z,2.42
2023-05-22T01:13:01.809Z,2.94
2023-05-22T01:16:06.366Z,3.3599999999999994
2023-05-22T01:19:11.879Z,2.6399999999999997
2023-05-22T01:22:17.394Z,3.22
2023-05-22T01:25:34.972Z,2.86
2023-05-22T01:28:47.425Z,3.7
2023-05-22T01:31:46.972Z,3.38
2023-05-22T01:34:45.540Z,2.6800000000000006
2023-05-22T01:37:42.154Z,2.82
2023-05-22T01:40:39.840Z,2.9
2023-05-22T01:43:36.190Z,3.7800000000000002
2023-05-22T01:46:33.771Z,2.74
2023-05-22T01:49:31.331Z,3.6
2023-05-22T01:52:36.888Z,3.7
2023-05-22T01:55:42.453Z,3.4799999999999995
2023-05-22T01:58:47.926Z,3.1399999999999997
2023-05-22T02:01:44.649Z,3.9799999999999995
2023-05-22T02:04:44.089Z,3.7399999999999998
2023-05-22T02:07:42.628Z,2.8400000000000003
2023-05-22T02:10:42.193Z,3.6199999999999997
2023-05-22T02:13:37.745Z,3.5799999999999996
2023-05-22T02:16:37.275Z,3.5
2023-05-22T02:19:38.831Z,3.4800000000000004
2023-05-22T02:22:34.391Z,3.38
2023-05-22T02:25:34.936Z,2.8000000000000003
2023-05-22T02:28:31.504Z,3.6399999999999997
2023-05-22T02:31:28.106Z,3
2023-05-22T02:34:23.613Z,3.88
2023-05-22T02:37:19.138Z,3.3400000000000007
2023-05-22T02:40:15.836Z,3.4799999999999995
2023-05-22T02:43:11.275Z,2.9799999999999995
2023-05-22T02:46:06.862Z,3.02
2023-05-22T02:49:02.419Z,3.8400000000000007
2023-05-22T02:51:57.979Z,4.0200000000000005
2023-05-22T02:54:53.527Z,2.56
2023-05-22T02:57:49.109Z,2.8600000000000003
2023-05-22T03:00:44.619Z,3.0599999999999996
2023-05-22T03:03:41.379Z,3.38
2023-05-22T03:06:37.800Z,2.7
2023-05-22T03:09:35.347Z,3.5
2023-05-22T03:12:30.898Z,3.1
2023-05-22T03:15:26.416Z,3.3200000000000003
2023-05-22T03:18:26.702Z,3.4200000000000004
2023-05-22T03:21:22.557Z,2.7800000000000002
2023-05-22T03:24:19.097Z,3.54
2023-05-22T03:27:16.671Z,2.8
2023-05-22T03:30:13.237Z,3.44
2023-05-22T03:33:11.917Z,2.6800000000000006
2023-05-22T03:36:09.357Z,3.3
2023-05-22T03:39:04.978Z,3.2
2023-05-22T03:42:00.496Z,3.6399999999999997
2023-05-22T03:44:56.016Z,3.4
2023-05-22T03:47:51.634Z,3.6199999999999997
2023-05-22T03:50:48.143Z,3.8200000000000003
2023-05-22T03:53:43.736Z,3.7600000000000002
2023-05-22T03:56:39.290Z,3.8200000000000003
2023-05-22T03:59:34.839Z,3.0799999999999996
2023-05-22T04:02:32.573Z,3.3600000000000003
2023-05-22T04:05:28.079Z,3.5799999999999996
2023-05-22T04:08:23.548Z,4.18
2023-05-22T04:11:22.088Z,3.7199999999999998
2023-05-22T04:14:17.602Z,3.88
2023-05-22T04:17:13.199Z,3.1399999999999997
2023-05-22T04:20:09.744Z,3.84
2023-05-22T04:23:07.329Z,3.44
2023-05-22T04:26:03.084Z,3.0599999999999996
2023-05-22T04:28:58.449Z,3.2600000000000002
2023-05-22T04:31:55.985Z,3.1399999999999997
2023-05-22T04:34:53.538Z,2.7600000000000002
2023-05-22T04:37:50.098Z,2.8200000000000003
2023-05-22T04:40:47.677Z,3
2023-05-22T04:43:44.278Z,2.96
2023-05-22T04:46:39.806Z,3.6
2023-05-22T04:49:36.358Z,3.4200000000000004
2023-05-22T04:52:36.907Z,3.66
2023-05-22T04:55:33.438Z,2.8600000000000003
2023-05-22T04:58:29.037Z,3.16
2023-05-22T05:01:33.031Z,3.2399999999999998
2023-05-22T05:04:29.091Z,3.16
2023-05-22T05:07:24.675Z,3.6799999999999997
2023-05-22T05:10:20.237Z,3
2023-05-22T05:13:15.800Z,3.66
2023-05-22T05:16:18.414Z,3.2
2023-05-22T05:19:14.965Z,3.44
2023-05-22T05:22:10.501Z,3.2
2023-05-22T05:25:07.493Z,4.06
2023-05-22T05:28:11.599Z,3.8599999999999994
2023-05-22T05:31:07.128Z,3.6199999999999997
2023-05-22T05:34:02.733Z,3.3
2023-05-22T05:36:59.298Z,4.2
2023-05-22T05:40:12.834Z,4.340000000000001
2023-05-22T05:43:17.339Z,3.5200000000000005
2023-05-22T05:46:13.193Z,3.66
2023-05-22T05:49:09.433Z,4
2023-05-22T05:52:05.994Z,3.7600000000000002
2023-05-22T05:55:02.540Z,3.6400000000000006
2023-05-22T05:57:58.074Z,3.8200000000000003
2023-05-22T06:00:55.676Z,4.220000000000001
2023-05-22T06:03:51.468Z,3.9200000000000004
2023-05-22T06:06:47.758Z,4.5200000000000005
2023-05-22T06:09:43.341Z,3.6399999999999997
2023-05-22T06:12:44.862Z,3.8400000000000007
2023-05-22T06:15:41.474Z,3.7800000000000002
2023-05-22T06:18:37.022Z,4.3
2023-05-22T06:21:32.542Z,4.4
2023-05-22T06:24:30.132Z,4.779999999999999
2023-05-22T06:27:27.721Z,5
2023-05-22T06:30:38.802Z,4.9
2023-05-22T06:33:23.846Z,4.3
2023-05-22T06:36:19.349Z,4.68
2023-05-22T06:39:16.275Z,5.1
2023-05-22T06:42:11.498Z,5.0200000000000005
2023-05-22T06:45:08.049Z,4.58
2023-05-22T06:48:04.680Z,4.26
2023-05-22T06:51:00.126Z,3.8600000000000003
2023-05-22T06:53:56.731Z,4.0200000000000005
2023-05-22T06:56:54.281Z,3.8
2023-05-22T06:59:50.858Z,4.539999999999999
2023-05-22T07:02:46.490Z,5.14
2023-05-22T07:05:41.983Z,4.68
2023-05-22T07:08:37.524Z,3.94
2023-05-22T07:11:36.083Z,4.1
2023-05-22T07:14:33.633Z,3.8600000000000003
2023-05-22T07:17:29.218Z,3.66
2023-05-22T07:20:26.107Z,3.72
2023-05-22T07:23:23.347Z,4.220000000000001
2023-05-22T07:26:21.877Z,4.32
2023-05-22T07:29:17.408Z,4.4
2023-05-22T07:32:14.982Z,4.58
2023-05-22T07:35:10.537Z,4.12
2023-05-22T07:38:07.083Z,4.8
2023-05-22T07:41:04.681Z,5.18
2023-05-22T07:44:00.239Z,5.1
2023-05-22T07:46:55.783Z,4.5
2023-05-22T07:49:53.348Z,4.28
2023-05-22T07:52:48.924Z,4.42
2023-05-22T07:55:44.445Z,5.040000000000001
2023-05-22T07:58:44.037Z,4.04
2023-05-22T08:01:41.617Z,4.279999999999999
2023-05-22T08:04:38.308Z,4
2023-05-22T08:07:34.000Z,3.38
2023-05-22T08:10:37.301Z,3.9200000000000004
2023-05-22T08:13:33.798Z,3.3200000000000003
2023-05-22T08:16:30.381Z,4.1
2023-05-22T08:19:26.006Z,3.84
2023-05-22T08:22:21.481Z,4.24
2023-05-22T08:25:17.015Z,4.0600000000000005
2023-05-22T08:28:12.584Z,3.84
2023-05-22T08:31:09.181Z,3.4799999999999995
2023-05-22T08:34:05.687Z,3.72
2023-05-22T08:37:05.248Z,3.2600000000000002
2023-05-22T08:40:00.847Z,3.3599999999999994
2023-05-22T08:42:57.395Z,3.2
2023-05-22T08:45:57.906Z,3.4
2023-05-22T08:48:56.645Z,3.1199999999999997
2023-05-22T08:52:03.025Z,3.3200000000000003
2023-05-22T08:55:02.595Z,3.38
2023-05-22T08:57:59.129Z,3.5199999999999996
2023-05-22T09:00:55.703Z,3.5799999999999996
2023-05-22T09:03:54.292Z,3.22
2023-05-22T09:06:50.867Z,3.6
2023-05-22T09:09:47.367Z,3.2600000000000002
2023-05-22T09:12:47.900Z,3.66
2023-05-22T09:15:45.452Z,3.3
2023-05-22T09:18:42.066Z,3.2600000000000002
2023-05-22T09:21:39.578Z,3.4200000000000004
2023-05-22T09:24:38.190Z,3.1799999999999997
2023-05-22T09:27:34.708Z,3.2199999999999998
2023-05-22T09:30:34.245Z,3.38
2023-05-22T09:33:30.813Z,3.3600000000000003
2023-05-22T09:36:32.355Z,3.66
2023-05-22T09:39:34.897Z,3
2023-05-22T09:42:33.446Z,3.12
2023-05-22T09:45:35.996Z,3.2
2023-05-22T09:48:33.549Z,3.16
2023-05-22T09:51:32.111Z,2.8600000000000003
2023-05-22T09:54:34.650Z,3.4200000000000004
2023-05-22T09:57:33.202Z,3.46
2023-05-22T10:00:33.741Z,3.7800000000000002
2023-05-22T10:03:36.398Z,3.56
2023-05-22T10:06:34.914Z,3.1399999999999997
2023-05-22T10:09:40.417Z,3.72
2023-05-22T10:12:41.958Z,3.06
2023-05-22T10:15:39.525Z,2.92
2023-05-22T10:18:37.087Z,3.3200000000000003
2023-05-22T10:21:36.618Z,3.6800000000000006
2023-05-22T10:24:34.204Z,3.04
2023-05-22T10:27:31.769Z,3.5
2023-05-22T10:30:35.288Z,2.72
2023-05-22T10:33:38.841Z,3.1
2023-05-22T10:36:43.695Z,3.3
2023-05-22T10:39:51.887Z,3.0599999999999996
2023-05-22T10:42:48.469Z,3.3600000000000003
2023-05-22T10:45:47.032Z,3.02
2023-05-22T10:48:45.588Z,2.8
2023-05-22T10:51:41.093Z,3.1
2023-05-22T10:54:40.658Z,3.2600000000000002
2023-05-22T10:57:42.207Z,3.04
2023-05-22T11:00:40.976Z,3.46
2023-05-22T11:03:45.352Z,2.96
2023-05-22T11:06:46.892Z,2.8400000000000003
2023-05-22T11:09:49.399Z,3.4800000000000004
2023-05-22T11:12:47.966Z,2.66
2023-05-22T11:15:45.544Z,3.44
2023-05-22T11:18:41.075Z,3.5
2023-05-22T11:21:42.601Z,3.4
2023-05-22T11:24:41.173Z,2.84
2023-05-22T11:27:39.742Z,3.6399999999999997
2023-05-22T11:30:37.456Z,2.96
2023-05-22T11:33:33.845Z,2.98
2023-05-22T11:36:31.401Z,2.7600000000000007
2023-05-22T11:39:31.925Z,2.96
2023-05-22T11:42:27.519Z,3.6399999999999997
2023-05-22T11:45:23.085Z,3.1799999999999997
2023-05-22T11:48:20.632Z,3.28
2023-05-22T11:51:19.215Z,3.34
2023-05-22T11:54:17.716Z,3.28
2023-05-22T11:57:14.301Z,3.1
2023-05-22T12:00:11.923Z,3.04
2023-05-22T12:03:08.584Z,3.5799999999999996
2023-05-22T12:06:06.006Z,3.44
2023-05-22T12:09:03.516Z,4.0600000000000005
2023-05-22T12:12:00.260Z,4.26
2023-05-22T12:14:57.626Z,3.7400000000000007
2023-05-22T12:17:55.170Z,3.6399999999999997
2023-05-22T12:20:51.760Z,2.84
2023-05-22T12:26:59.314Z,3.7600000000000002
2023-05-22T12:29:56.370Z,3.3600000000000003
2023-05-22T12:32:53.017Z,3.3600000000000003
2023-05-22T12:35:51.507Z,3.4800000000000004
2023-05-22T12:38:47.050Z,3.5799999999999996
2023-05-22T12:41:44.626Z,3.38
2023-05-22T12:44:41.181Z,3.46
2023-05-22T12:47:36.801Z,2.92
2023-05-22T12:50:32.284Z,2.88
2023-05-22T12:53:27.846Z,2.48
2023-05-22T12:56:23.419Z,2.7
2023-05-22T12:59:20.753Z,3.0799999999999996
2023-05-22T13:02:16.510Z,2.7
2023-05-22T13:05:12.123Z,3.1
2023-05-22T13:08:08.672Z,3.1
2023-05-22T13:11:04.253Z,2.7600000000000002
2023-05-22T13:14:00.777Z,2.6
2023-05-22T13:16:56.336Z,2.74
2023-05-22T13:19:51.882Z,3
2023-05-22T13:22:47.488Z,3.2400000000000007
2023-05-22T13:25:44.969Z,2.7400000000000007
2023-05-22T13:28:40.539Z,2.8000000000000003
2023-05-22T13:31:37.359Z,2.7
2023-05-22T13:34:32.742Z,3.1199999999999997
2023-05-22T13:37:28.268Z,3.1399999999999997
2023-05-22T13:40:25.833Z,2.5799999999999996
2023-05-22T13:43:22.392Z,2.94
2023-05-22T13:46:21.041Z,2.6399999999999997
2023-05-22T13:49:16.536Z,2.94
2023-05-22T13:52:12.092Z,2.7800000000000002
2023-05-22T13:55:08.636Z,2.8600000000000003
2023-05-22T13:58:04.196Z,2.7800000000000002
2023-05-22T14:00:59.771Z,2.38
2023-05-22T14:03:56.307Z,2.7800000000000002
2023-05-22T14:06:51.853Z,2.82
2023-05-22T14:09:47.441Z,2.1399999999999997
2023-05-22T14:12:42.973Z,2.6799999999999997
2023-05-22T14:15:39.725Z,2.6799999999999997
2023-05-22T14:18:35.124Z,2.5599999999999996
2023-05-22T14:21:32.647Z,2.24
2023-05-22T14:24:28.242Z,2.52
2023-05-22T14:27:25.758Z,2.6799999999999997
2023-05-22T14:30:21.326Z,2.22
2023-05-22T14:33:17.922Z,2.5200000000000005
2023-05-22T14:36:13.476Z,4.0200000000000005
2023-05-22T14:39:09.007Z,7.4799999999999995
2023-05-22T14:42:05.542Z,3.22
2023-05-22T14:45:02.153Z,2.6
2023-05-22T14:47:57.731Z,2.56
2023-05-22T14:50:53.312Z,2.48
2023-05-22T14:53:48.833Z,3.3599999999999994
2023-05-22T14:56:45.381Z,2.66
2023-05-22T14:59:42.957Z,2.5799999999999996
2023-05-22T15:02:39.572Z,4.1
2023-05-22T15:05:36.070Z,3.3599999999999994
2023-05-22T15:08:31.620Z,3.1799999999999997
2023-05-22T15:11:27.248Z,3.7400000000000007
2023-05-22T15:14:23.762Z,2.9799999999999995
2023-05-22T15:17:20.280Z,2.94
2023-05-22T15:20:16.848Z,3
2023-05-22T15:23:12.393Z,3.3199999999999994
2023-05-22T15:26:08.024Z,3.5
2023-05-22T15:29:03.527Z,3.2
2023-05-22T15:32:00.194Z,3.2400000000000007
2023-05-22T15:34:55.679Z,3.6800000000000006
2023-05-22T15:37:51.227Z,2.98
2023-05-22T15:40:49.760Z,3.66
2023-05-22T15:43:46.352Z,3.34
2023-05-22T15:46:43.895Z,3.4800000000000004
2023-05-22T15:49:39.496Z,3.56
2023-05-22T15:52:36.019Z,3.1799999999999997
2023-05-22T15:55:33.593Z,2.72
2023-05-22T15:58:30.172Z,3.22
2023-05-22T16:01:28.767Z,3.6799999999999997
2023-05-22T16:04:24.278Z,2.72
2023-05-22T16:07:20.791Z,2.7
2023-05-22T16:10:16.375Z,2.66
2023-05-22T16:13:12.929Z,3.7600000000000002
2023-05-22T16:16:10.500Z,3.1399999999999997
2023-05-22T16:19:06.094Z,4.18
2023-05-22T16:22:02.609Z,3.3400000000000007
2023-05-22T16:24:58.186Z,3.4200000000000004
2023-05-22T16:27:53.772Z,3.6399999999999997
2023-05-22T16:30:49.283Z,3.96
2023-05-22T16:33:44.845Z,3.54
2023-05-22T16:36:40.404Z,4.26
2023-05-22T16:39:35.958Z,4.12
2023-05-22T16:42:31.557Z,3.8199999999999994
2023-05-22T16:45:27.126Z,3.7800000000000002
2023-05-22T16:48:22.729Z,4.619999999999999
2023-05-22T16:51:18.234Z,4.08
2023-05-22T16:54:13.773Z,4.9799999999999995
2023-05-22T16:57:09.338Z,4.42
2023-05-22T17:00:06.887Z,5.1
2023-05-22T17:03:02.525Z,5.08
2023-05-22T17:05:58.038Z,4.459999999999999
2023-05-22T17:08:53.614Z,4.840000000000001
2023-05-22T17:11:49.159Z,3.6399999999999997
2023-05-22T17:14:44.742Z,4
2023-05-22T17:17:40.274Z,3.62
2023-05-22T17:20:38.836Z,3.7399999999999998
2023-05-22T17:23:38.379Z,3.38
2023-05-22T17:26:34.947Z,2.8999999999999995
2023-05-22T17:29:30.501Z,3.2
2023-05-22T17:32:26.132Z,3.7400000000000007
2023-05-22T17:35:21.627Z,3.6799999999999997
2023-05-22T17:38:17.222Z,3.3200000000000003
2023-05-22T17:41:12.752Z,3.2600000000000002
2023-05-22T17:44:09.305Z,2.7800000000000002
2023-05-22T17:47:05.914Z,3.3600000000000003
2023-05-22T17:50:01.438Z,3.04
2023-05-22T17:52:57.007Z,3
2023-05-22T17:55:52.683Z,2.8400000000000003
2023-05-22T17:58:49.115Z,2.6800000000000006
2023-05-22T18:01:45.732Z,2.5799999999999996
2023-05-22T18:04:42.208Z,2.34
2023-05-22T18:07:37.779Z,2.8
2023-05-22T18:10:34.386Z,2.9
2023-05-22T18:13:29.935Z,2.66
2023-05-22T18:16:26.582Z,2.3
2023-05-22T18:19:22.100Z,2.46
2023-05-22T18:22:17.592Z,2.1
2023-05-22T18:25:13.159Z,1.7599999999999998
2023-05-22T18:28:08.693Z,1.3800000000000001
2023-05-22T18:31:04.356Z,1.3
2023-05-22T18:33:59.839Z,1.3199999999999998
2023-05-22T18:36:57.447Z,1.52
2023-05-22T18:39:53.003Z,1.52
2023-05-22T18:42:48.484Z,1.22
2023-05-22T18:45:45.064Z,1.08
2023-05-22T18:48:40.627Z,1.22
2023-05-22T18:51:37.229Z,1.12
2023-05-22T18:54:32.764Z,1.4
2023-05-22T18:57:29.335Z,1.3800000000000001
2023-05-22T19:00:24.904Z,1.2799999999999998
2023-05-22T19:03:20.478Z,1.1400000000000001
2023-05-22T19:06:18.025Z,1.46
2023-05-22T19:09:14.559Z,1.1800000000000002
2023-05-22T19:12:12.184Z,1.26
2023-05-22T19:15:08.681Z,1.1800000000000002
2023-05-22T19:18:04.338Z,2.04
2023-05-22T19:20:59.810Z,1.6600000000000001
2023-05-22T19:23:55.363Z,1.9599999999999997
2023-05-22T19:26:51.055Z,1.86
2023-05-22T19:29:46.490Z,2.42
2023-05-22T19:32:43.090Z,2.9799999999999995
2023-05-22T19:35:39.609Z,2.7
2023-05-22T19:38:35.194Z,2.42
2023-05-22T19:41:31.705Z,2.3600000000000003
2023-05-22T19:44:27.285Z,2.4
2023-05-22T19:47:24.133Z,2.84
2023-05-22T19:50:19.371Z,2.2
2023-05-22T19:53:15.937Z,1.8400000000000003
2023-05-22T19:56:11.514Z,1.52
2023-05-22T19:59:07.079Z,1.6199999999999999
2023-05-22T20:02:03.752Z,2.04
2023-05-22T20:05:01.193Z,1.78
2023-05-22T20:07:57.759Z,2.6799999999999997
2023-05-22T20:10:56.328Z,1.9
2023-05-22T20:13:54.018Z,2.16
2023-05-22T20:16:50.552Z,1.78
2023-05-22T20:19:47.031Z,1.94
2023-05-22T20:22:42.592Z,1.7
2023-05-22T20:25:39.330Z,2.02
2023-05-22T20:28:35.745Z,2.1
2023-05-22T20:31:37.279Z,1.1600000000000001
2023-05-22T20:34:34.804Z,1.58
2023-05-22T20:37:34.380Z,1.52
2023-05-22T20:40:45.874Z,1.42
2023-05-22T20:43:42.456Z,1.78
2023-05-22T20:46:39.005Z,1.6800000000000002
2023-05-22T20:49:37.530Z,1.86
2023-05-22T20:52:37.221Z,1.4
2023-05-22T20:55:33.652Z,1.72
2023-05-22T20:58:29.194Z,2.38
2023-05-22T21:01:24.814Z,2.2800000000000002
2023-05-22T21:04:21.334Z,1.9600000000000002
2023-05-22T21:07:17.901Z,1.8400000000000003
2023-05-22T21:10:24.182Z,2.1399999999999997
2023-05-22T21:13:19.973Z,2.04
2023-05-22T21:16:15.531Z,1.6800000000000002
2023-05-22T21:19:11.141Z,1.4
2023-05-22T21:22:07.668Z,1.8199999999999998
2023-05-22T21:25:04.241Z,1.6800000000000002
2023-05-22T21:28:01.891Z,1.6199999999999999
2023-05-22T21:30:57.389Z,2.38
2023-05-22T21:33:52.885Z,2
2023-05-22T21:36:49.477Z,1.86
2023-05-22T21:39:45.055Z,2.16
2023-05-22T21:42:46.699Z,1.92
2023-05-22T21:45:42.118Z,2.24
2023-05-22T21:48:38.644Z,2.04
2023-05-22T21:51:34.224Z,1.78
2023-05-22T21:54:29.780Z,1.8800000000000001
2023-05-22T21:57:25.397Z,2.12
2023-05-22T22:00:22.972Z,2.12
2023-05-22T22:03:18.641Z,1.6800000000000002
2023-05-22T22:06:14.016Z,1.8
2023-05-22T22:09:09.634Z,1.8800000000000001
2023-05-22T22:12:06.156Z,1.7399999999999998
2023-05-22T22:15:01.729Z,1.72
2023-05-22T22:17:59.621Z,1.92
2023-05-22T22:20:55.816Z,2.1199999999999997
2023-05-22T22:23:52.387Z,1.98
2023-05-22T22:26:48.962Z,2.04
2023-05-22T22:29:44.546Z,1.64
2023-05-22T22:32:41.102Z,1.9599999999999997
2023-05-22T22:35:37.858Z,1.8
2023-05-22T22:38:35.227Z,2.0799999999999996
2023-05-22T22:41:30.738Z,1.8400000000000003
2023-05-22T22:44:26.345Z,2.1399999999999997
2023-05-22T22:47:21.936Z,1.9600000000000002
2023-05-22T22:50:17.455Z,2.66
2023-05-22T22:53:17.021Z,2.0799999999999996
2023-05-22T22:56:12.595Z,1.9600000000000002
2023-05-22T22:59:08.167Z,1.9
2023-05-22T23:02:03.693Z,1.7600000000000002
2023-05-22T23:05:01.320Z,1.6800000000000002
2023-05-22T23:08:01.902Z,2.1800000000000006
2023-05-22T23:10:57.398Z,3.44
2023-05-22T23:13:54.995Z,2.0799999999999996
2023-05-22T23:16:50.497Z,1.8800000000000001
2023-05-22T23:19:48.056Z,2.1
2023-05-22T23:22:43.603Z,2.46
2023-05-22T23:25:39.371Z,2.7199999999999998
2023-05-22T23:28:35.729Z,2.3600000000000003
2023-05-22T23:31:31.302Z,3.1
2023-05-22T23:34:27.843Z,2.2399999999999998
2023-05-22T23:37:23.404Z,2.54
2023-05-22T23:40:18.991Z,2.6
2023-05-22T23:43:14.522Z,3.3
2023-05-22T23:46:13.108Z,2.82
2023-05-22T23:49:10.647Z,2.62
2023-05-22T23:52:07.207Z,2.72
2023-05-22T23:55:04.764Z,2.7
2023-05-22T23:58:00.321Z,2.82
